Bookmark and Share
Track history (hours):
 

Alessandro F

Last reported at 2014-Apr-05 11:33 UTC. Time now 2014-Apr-21 04:55 UTC.
Position N 43°08' E 009°20'.
Warning: this ship's position is 15 days out of date.

Length 100 m; draft 6.4 m.

Type: Ship (hazmat cat A). MMSI: 247046400.

NotesDate/timePositionNaut miles runAvg speedWind from/ knotsBaromVisibWave heightAir tempDewpointWater temp
2014-Apr-05 11:33N 43°08' E 009°20'1512.9
2014-Apr-05 10:25N 43°15' E 009°02'6312.5
2014-Apr-05 05:26N 43°32' E 007°39'1512.0
2014-Apr-05 04:12N 43°23' E 007°23'10110.5
2014-Apr-04 18:33N 43°09' E 005°06'1212.0
2014-Apr-04 17:34N 43°20' E 004°58'4 3.5
2014-Apr-04 16:31N 43°23' E 004°57'0 0.0
2014-Apr-04 15:28N 43°23' E 004°57'0 0.1
2014-Apr-04 14:31N 43°24' E 004°57'0 0.0
2014-Apr-04 13:10N 43°24' E 004°57'0 0.0
2014-Apr-04 12:31N 43°24' E 004°57'0 0.0
2014-Apr-04 11:31N 43°24' E 004°57'0 0.0
2014-Apr-04 10:31N 43°24' E 004°57'0 0.0
2014-Apr-04 09:31N 43°24' E 004°57'0 0.0
2014-Apr-04 08:31N 43°24' E 004°57'0 0.0
2014-Apr-04 07:31N 43°24' E 004°57'0 0.0
2014-Apr-04 06:31N 43°24' E 004°57'0 0.0
2014-Apr-04 05:31N 43°24' E 004°57'0 0.1
2014-Apr-04 04:31N 43°24' E 004°57'0 0.0
2014-Apr-04 03:28N 43°24' E 004°57'1 1.4
2014-Apr-04 02:33N 43°24' E 004°59'0 0.2
2014-Apr-04 01:33N 43°24' E 004°59'0 0.0
2014-Apr-04 00:33N 43°24' E 004°59'0 0.0
2014-Apr-03 23:33N 43°24' E 004°59'0 0.0
2014-Apr-03 22:33N 43°24' E 004°59'0 0.0
2014-Apr-03 21:33N 43°24' E 004°59'0 0.0
2014-Apr-03 20:33N 43°24' E 004°59'0 0.0
2014-Apr-03 19:33N 43°24' E 004°59'0 0.2
2014-Apr-03 18:34N 43°24' E 004°59'5 4.5
2014-Apr-03 17:33N 43°25' E 004°53'0 0.0
2014-Apr-03 16:33N 43°25' E 004°53'0 0.0
2014-Apr-03 15:33N 43°25' E 004°53'0 0.0
2014-Apr-03 14:30N 43°25' E 004°53'0 0.0
2014-Apr-03 12:33N 43°25' E 004°53'0 0.0
2014-Apr-03 11:33N 43°25' E 004°53'0 0.0
2014-Apr-03 10:33N 43°25' E 004°53'0 0.0
2014-Apr-03 09:33N 43°25' E 004°53'0 0.0
2014-Apr-03 07:33N 43°25' E 004°53'0 0.0
2014-Apr-03 06:33N 43°25' E 004°53'0 0.0
2014-Apr-03 05:30N 43°25' E 004°53'0 0.0
2014-Apr-03 04:33N 43°25' E 004°53'0 0.0
2014-Apr-03 02:33N 43°25' E 004°53'0 0.0
2014-Apr-03 01:30N 43°25' E 004°53'0 0.0
2014-Apr-03 00:33N 43°25' E 004°53'0 0.0
2014-Apr-02 23:33N 43°25' E 004°53'0 0.0
2014-Apr-02 21:30N 43°25' E 004°53'0 0.0
2014-Apr-02 20:30N 43°25' E 004°53'0 0.0
2014-Apr-02 19:33N 43°25' E 004°53'0 0.0
2014-Apr-02 17:26N 43°25' E 004°53'0 0.0
2014-Apr-02 16:29N 43°25' E 004°53'0 0.0
2014-Apr-02 15:32N 43°25' E 004°53'0 0.0
2014-Apr-02 14:32N 43°25' E 004°53'0 0.0
2014-Apr-02 13:32N 43°25' E 004°53'0 0.0
2014-Apr-02 12:32N 43°25' E 004°53'0 0.0
2014-Apr-02 11:29N 43°25' E 004°53'0 0.0
2014-Apr-02 10:32N 43°25' E 004°53'0 0.0
2014-Apr-02 09:29N 43°25' E 004°53'0 0.0
2014-Apr-02 08:26N 43°25' E 004°53'0 0.0
2014-Apr-02 07:23N 43°25' E 004°53'0 0.0
2014-Apr-02 06:29N 43°25' E 004°53'0 0.0
2014-Apr-02 05:32N 43°25' E 004°53'0 0.0
2014-Apr-02 04:32N 43°25' E 004°53'0 0.0
2014-Apr-02 03:29N 43°25' E 004°53'0 0.0
2014-Apr-02 02:32N 43°25' E 004°53'0 0.0
2014-Apr-02 01:32N 43°25' E 004°53'0 0.0
2014-Apr-02 00:32N 43°25' E 004°53'0 0.0
2014-Apr-01 23:32N 43°25' E 004°53'0 0.0
2014-Apr-01 22:08N 43°25' E 004°53'0 0.0
2014-Apr-01 21:32N 43°25' E 004°53'0 0.0
2014-Apr-01 20:29N 43°25' E 004°53'0 0.0
2014-Apr-01 19:32N 43°25' E 004°53'0 0.0
2014-Apr-01 17:32N 43°25' E 004°53'0 0.0
2014-Apr-01 16:29N 43°25' E 004°53'0 0.3
2014-Apr-01 15:34N 43°25' E 004°53'2 2.2
2014-Apr-01 14:32N 43°25' E 004°56'0 0.0
2014-Apr-01 13:32N 43°25' E 004°56'0 0.0
2014-Apr-01 12:32N 43°25' E 004°56'0 0.0
2014-Apr-01 11:32N 43°25' E 004°56'0 0.0
2014-Apr-01 10:32N 43°25' E 004°56'0 0.0
2014-Apr-01 09:32N 43°25' E 004°56'0 0.0
2014-Apr-01 08:32N 43°25' E 004°56'0 0.0
2014-Apr-01 07:32N 43°25' E 004°56'0 0.0
2014-Apr-01 06:32N 43°25' E 004°56'0 0.0
2014-Apr-01 05:32N 43°25' E 004°56'0 0.0
2014-Apr-01 04:32N 43°25' E 004°56'0 0.0
2014-Apr-01 03:32N 43°25' E 004°56'0 0.0
2014-Apr-01 02:32N 43°25' E 004°56'0 0.0
2014-Apr-01 01:32N 43°25' E 004°56'0 0.0
2014-Apr-01 00:32N 43°25' E 004°56'0 0.0
2014-Mar-31 23:32N 43°25' E 004°56'0 0.0
2014-Mar-31 22:32N 43°25' E 004°56'0 0.0
2014-Mar-31 21:32N 43°25' E 004°56'0 0.0
2014-Mar-31 20:32N 43°25' E 004°56'0 0.0
2014-Mar-31 19:32N 43°25' E 004°56'0 0.0
2014-Mar-31 18:32N 43°25' E 004°56'0 0.0
2014-Mar-31 17:29N 43°25' E 004°56'0 0.0
2014-Mar-31 16:32N 43°25' E 004°56'0 0.0
2014-Mar-31 15:32N 43°25' E 004°56'0 0.0
2014-Mar-31 14:32N 43°25' E 004°56'0 0.0
2014-Mar-31 13:32N 43°25' E 004°56'0 0.0
2014-Mar-31 12:32N 43°25' E 004°56'0 0.0
2014-Mar-31 11:32N 43°25' E 004°56'0 0.0
2014-Mar-31 10:32N 43°25' E 004°56'0 0.0
2014-Mar-31 09:32N 43°25' E 004°56'0 0.0
2014-Mar-31 08:32N 43°25' E 004°56'0 0.0
2014-Mar-31 07:32N 43°25' E 004°56'0 0.0
2014-Mar-31 06:29N 43°25' E 004°56'0 0.0
2014-Mar-31 05:32N 43°25' E 004°56'0 0.0
2014-Mar-31 04:32N 43°25' E 004°56'0 0.0
2014-Mar-31 03:32N 43°25' E 004°56'0 0.0
2014-Mar-31 02:32N 43°25' E 004°56'0 0.0
2014-Mar-31 01:29N 43°25' E 004°56'0 0.0
2014-Mar-31 00:32N 43°25' E 004°56'0 0.0
2014-Mar-30 23:32N 43°25' E 004°56'0 0.1
2014-Mar-30 22:32N 43°25' E 004°56'0 0.0
2014-Mar-30 21:32N 43°25' E 004°56'0 0.0
2014-Mar-30 20:32N 43°25' E 004°56'2 2.0
2014-Mar-30 19:33N 43°23' E 004°57'10 9.7
2014-Mar-30 18:33N 43°14' E 005°02'17712.6
2014-Mar-30 04:33N 43°10' E 009°05'1312.9
2014-Mar-30 03:33N 43°11' E 009°22'2813.0
2014-Mar-30 01:23N 42°52' E 009°52'19913.4
2014-Mar-29 10:29N 40°53' E 013°27'1312.7
2014-Mar-29 09:29N 40°44' E 013°37'16812.1
2014-Mar-28 19:32N 38°13' E 015°15'0 0.0
2014-Mar-28 18:32N 38°13' E 015°15'0 0.0
2014-Mar-28 17:32N 38°13' E 015°15'0 0.0
2014-Mar-28 16:32N 38°13' E 015°15'0 0.0
2014-Mar-28 15:29N 38°13' E 015°15'0 0.0
2014-Mar-28 14:29N 38°13' E 015°15'0 0.0
2014-Mar-28 13:29N 38°13' E 015°15'0 0.0
2014-Mar-28 12:29N 38°13' E 015°15'0 0.0
2014-Mar-28 11:29N 38°13' E 015°15'0 0.0
2014-Mar-28 10:29N 38°13' E 015°15'0 0.0
2014-Mar-28 09:29N 38°13' E 015°15'0 0.0
2014-Mar-28 08:29N 38°13' E 015°15'0 0.1
2014-Mar-28 07:33N 38°13' E 015°15'1 0.9
2014-Mar-28 06:28N 38°13' E 015°16'146 3.6
2014-Mar-26 14:22N 40°29' E 014°08'1012.3
2014-Mar-26 13:32N 40°34' E 013°57'1312.5
2014-Mar-26 12:30N 40°41' E 013°42'  

Dump ship's entire track history

sailing weather and tide predictions

Alessandro F — IBVQ — position and weather